Prince Albert Glass Field
CYPA : now visible

Airfield :











YOU CAN JOIN US ON...

 
LOGIN :

Register | Disclaimer

   EN    FR    IT 

 









Legend :    VFR   Marginal VFR   IFR   Intensive IFR   Very Intensive IFR
Visi :
Ceiling :
>= 8 km
>= 3000ft
5 to 8 km
1000 to 3000 ft
1500m to 5 km
500 to 1000 ft
800 to 1500m
200 to 500 ft
< 800m
< 200 ft
Symbols :   Thunderstorms  Fog  Heavy snow  Heavy precipitations  Wind > 20 kt






- Airport Elevation : 1405 ft
- IATA code : YPA


CYPA - Prince Albert Glass Field

CURRENT METAR :
  • 210100Z 30008KT 15SM -SN OVC045 M03/M07 A3004 RMK SC8 SLP202

EXPIRED METARs :
  • 210000Z 31005KT 15SM -SN OVC044 M02/M08 A3003 RMK SC8 SLP198
  • 202300Z 33007KT 15SM -SN OVC042 M02/M09 A3002 RMK SC8 SLP196

TAF TAF CYPA
Valid from the 21 at 01:00 until the 21 at 13:00 UTC


210038Z 2101/2113 32006KT P6SM FEW020 OVC040
TEMPO 2101/2113 P6SM -SN RMK NXT FCST BY 210700Z
CZWG FIR / North America



MET'MAP, your aeronautical weather chart ! - Copyright ORBIFLY December 2007 - Disclaimer

ORBIFLY MET'MAP TEAM :

Programming & Development : Alexandra Zaïnal
Concept & original design : Baudouin d'Aumeries
Assistance for programming : Marc-Olivier Méhu
Technical & hardware support : Manuel Goepfert

Contact : metmap@orbifly.com




SOURCES & CREDITS :

   NOAA       Earth
Advisory